Terminal Aerodrome Forecast
Issued by NWS

Home | Current Version | Previous Version | Text Only | Print | Product List | Glossary On
Versions: 1 2 3 4 5 6 7 8 9 10 11 12 13 14 15 16
000
FTUS44 KMAF 290500
TAFINK
TAF
KINK 290520Z 2906/3006 05005KT P6SM SKC
     FM291400 02017G25KT P6SM BKN060
     FM300000 06016G21KT P6SM OVC070=

USA.gov is the U.S. government's official web portal to all federal, state and local government web resources and services.